createdAt,value
2023-01-28T00:00:56.267Z,0.00
2023-01-28T00:02:16.985Z,0.00
2023-01-28T00:02:56.362Z,0.00
2023-01-28T00:03:56.089Z,0.00
2023-01-28T00:04:56.327Z,0.00
2023-01-28T00:05:56.083Z,0.00
2023-01-28T00:06:56.362Z,0.00
2023-01-28T00:07:56.091Z,0.00
2023-01-28T00:08:56.364Z,0.00
2023-01-28T00:09:56.100Z,0.00
2023-01-28T00:10:56.372Z,0.00
2023-01-28T00:12:17.597Z,0.00
2023-01-28T00:12:56.407Z,0.00
2023-01-28T00:13:56.157Z,0.00
2023-01-28T00:14:55.931Z,0.00
2023-01-28T00:15:56.251Z,0.00
2023-01-28T00:16:55.968Z,0.00
2023-01-28T00:17:56.218Z,0.00
2023-01-28T00:18:55.989Z,0.00
2023-01-28T00:19:56.259Z,0.00
2023-01-28T00:20:56.011Z,0.00
2023-01-28T00:22:17.751Z,0.00
2023-01-28T00:22:56.047Z,0.00
2023-01-28T00:23:56.338Z,0.00
2023-01-28T00:24:56.044Z,0.00
2023-01-28T00:25:56.279Z,0.00
2023-01-28T00:26:56.013Z,0.00
2023-01-28T00:27:56.305Z,0.00
2023-01-28T00:28:56.050Z,0.00
2023-01-28T00:29:55.793Z,0.00
2023-01-28T00:30:56.100Z,0.00
2023-01-28T00:32:16.931Z,0.00
2023-01-28T00:32:56.125Z,0.00
2023-01-28T00:33:55.893Z,0.00
2023-01-28T00:34:56.147Z,0.00
2023-01-28T00:35:55.930Z,0.00
2023-01-28T00:36:56.168Z,0.00
2023-01-28T00:37:55.939Z,0.00
2023-01-28T00:38:56.193Z,0.00
2023-01-28T00:39:55.912Z,0.00
2023-01-28T00:40:55.673Z,0.00
2023-01-28T00:42:17.437Z,0.00
2023-01-28T00:42:55.751Z,0.00
2023-01-28T00:43:55.980Z,0.00
2023-01-28T00:44:55.744Z,0.00
2023-01-28T00:45:56.011Z,0.00
2023-01-28T00:46:55.767Z,0.00
2023-01-28T00:47:56.015Z,0.00
2023-01-28T00:48:55.808Z,0.00
2023-01-28T00:49:56.059Z,0.00
2023-01-28T00:50:55.845Z,0.00
2023-01-28T00:52:17.016Z,0.00
2023-01-28T00:52:56.035Z,0.00
2023-01-28T00:53:55.792Z,0.00
2023-01-28T00:54:55.557Z,0.00
2023-01-28T00:55:55.789Z,0.00
2023-01-28T00:56:55.570Z,0.00
2023-01-28T00:57:55.820Z,0.00
2023-01-28T00:58:55.581Z,0.00
2023-01-28T00:59:55.815Z,0.00
2023-01-28T01:00:55.590Z,0.00
2023-01-28T01:02:16.432Z,0.00
2023-01-28T01:02:55.681Z,0.00
2023-01-28T01:03:55.864Z,0.00
2023-01-28T01:04:55.628Z,0.00
2023-01-28T01:05:55.876Z,0.00
2023-01-28T01:06:55.648Z,0.00
2023-01-28T01:07:55.919Z,0.00
2023-01-28T01:08:55.668Z,0.00
2023-01-28T01:09:55.413Z,0.00
2023-01-28T01:10:55.659Z,0.00
2023-01-28T01:12:16.959Z,0.00
2023-01-28T01:12:55.758Z,0.00
2023-01-28T01:13:55.506Z,0.00
2023-01-28T01:14:55.764Z,0.00
2023-01-28T01:15:55.581Z,0.00
2023-01-28T01:16:56.328Z,0.00
2023-01-28T01:17:55.549Z,0.00
2023-01-28T01:18:55.805Z,0.00
2023-01-28T01:19:55.542Z,0.00
2023-01-28T01:20:55.299Z,0.00
2023-01-28T01:22:15.549Z,0.00
2023-01-28T01:22:55.294Z,0.00
2023-01-28T01:23:55.571Z,0.00
2023-01-28T01:24:55.301Z,0.00
2023-01-28T01:25:55.545Z,0.00
2023-01-28T01:26:55.312Z,0.00
2023-01-28T01:27:55.570Z,0.00
2023-01-28T01:28:55.321Z,0.00
2023-01-28T01:29:55.560Z,0.00
2023-01-28T01:30:55.343Z,0.00
2023-01-28T01:32:15.600Z,0.00
2023-01-28T01:32:55.351Z,0.00
2023-01-28T01:33:55.602Z,0.00
2023-01-28T01:34:55.373Z,0.00
2023-01-28T01:35:55.630Z,0.00
2023-01-28T01:36:55.389Z,0.00
2023-01-28T01:37:55.150Z,0.00
2023-01-28T01:38:55.732Z,0.00
2023-01-28T01:39:55.151Z,0.00
2023-01-28T01:40:55.404Z,0.00
2023-01-28T01:42:15.165Z,0.00
2023-01-28T01:42:55.415Z,0.00
2023-01-28T01:43:55.161Z,0.00
2023-01-28T01:44:55.420Z,0.00
2023-01-28T01:45:55.230Z,0.00
2023-01-28T01:46:55.443Z,0.00
2023-01-28T01:47:55.191Z,0.00
2023-01-28T01:48:56.464Z,0.00
2023-01-28T01:49:55.222Z,0.00
2023-01-28T01:50:55.456Z,0.00
2023-01-28T01:52:15.229Z,0.00
2023-01-28T01:52:54.965Z,0.00
2023-01-28T01:53:55.215Z,0.00
2023-01-28T01:54:54.966Z,0.00
2023-01-28T01:55:55.220Z,0.00
2023-01-28T01:56:54.990Z,0.00
2023-01-28T01:57:55.268Z,0.00
2023-01-28T01:58:54.989Z,0.00
2023-01-28T01:59:55.238Z,0.00
2023-01-28T02:00:55.005Z,0.00
2023-01-28T02:02:15.294Z,0.00
2023-01-28T02:02:54.994Z,0.00
2023-01-28T02:03:55.244Z,0.00
2023-01-28T02:04:54.994Z,0.00
2023-01-28T02:05:55.240Z,0.00
2023-01-28T02:06:55.048Z,0.00
2023-01-28T02:07:55.251Z,0.00
2023-01-28T02:08:54.998Z,0.00
2023-01-28T02:09:55.248Z,0.00
2023-01-28T02:10:54.996Z,0.00
2023-01-28T02:12:15.246Z,0.00
2023-01-28T02:12:55.018Z,0.00
2023-01-28T02:13:57.109Z,0.00
2023-01-28T02:14:55.017Z,0.00
2023-01-28T02:15:54.765Z,0.00
2023-01-28T02:16:55.075Z,0.00
2023-01-28T02:17:54.772Z,0.00
2023-01-28T02:18:55.034Z,0.00
2023-01-28T02:19:54.784Z,0.00
2023-01-28T02:20:55.092Z,0.00
2023-01-28T02:22:14.846Z,0.00
2023-01-28T02:22:55.099Z,0.00
2023-01-28T02:23:54.857Z,0.00
2023-01-28T02:24:55.139Z,0.00
2023-01-28T02:25:54.836Z,0.00
2023-01-28T02:26:55.109Z,0.00
2023-01-28T02:27:54.821Z,0.00
2023-01-28T02:28:55.095Z,0.00
2023-01-28T02:29:54.831Z,0.00
2023-01-28T02:30:54.746Z,0.00
2023-01-28T02:32:14.858Z,0.00
2023-01-28T02:32:54.603Z,0.00
2023-01-28T02:33:54.887Z,0.00
2023-01-28T02:34:54.626Z,0.00
2023-01-28T02:35:54.890Z,0.00
2023-01-28T02:36:54.610Z,0.00
2023-01-28T02:37:54.870Z,0.00
2023-01-28T02:38:54.642Z,0.00
2023-01-28T02:39:54.885Z,0.00
2023-01-28T02:40:54.637Z,0.00
2023-01-28T02:42:14.901Z,0.00
2023-01-28T02:42:54.644Z,0.00
2023-01-28T02:43:54.901Z,0.00
2023-01-28T02:44:54.641Z,0.00
2023-01-28T02:45:54.947Z,0.00
2023-01-28T02:46:54.697Z,0.00
2023-01-28T02:47:54.941Z,0.00
2023-01-28T02:48:54.691Z,0.00
2023-01-28T02:49:54.457Z,0.00
2023-01-28T02:50:54.693Z,0.00
2023-01-28T02:52:14.469Z,0.00
2023-01-28T02:52:54.702Z,0.00
2023-01-28T02:53:54.451Z,0.00
2023-01-28T02:54:54.701Z,0.00
2023-01-28T02:55:54.464Z,0.00
2023-01-28T02:56:54.719Z,0.00
2023-01-28T02:57:54.477Z,0.00
2023-01-28T02:58:54.702Z,0.00
2023-01-28T02:59:54.501Z,0.00
2023-01-28T03:00:54.717Z,0.00
2023-01-28T03:02:14.541Z,0.00
2023-01-28T03:02:54.835Z,0.00
2023-01-28T03:03:54.477Z,0.00
2023-01-28T03:04:54.724Z,0.00
2023-01-28T03:05:54.495Z,0.00
2023-01-28T03:06:54.247Z,0.00
2023-01-28T03:07:54.545Z,0.00
2023-01-28T03:08:54.276Z,0.00
2023-01-28T03:09:54.546Z,0.00
2023-01-28T03:10:54.303Z,0.00
2023-01-28T03:12:14.575Z,0.00
2023-01-28T03:12:54.286Z,0.00
2023-01-28T03:13:54.555Z,0.00
2023-01-28T03:14:54.303Z,0.00
2023-01-28T03:15:54.604Z,0.00
2023-01-28T03:16:54.327Z,0.00
2023-01-28T03:17:54.602Z,0.00
2023-01-28T03:18:54.398Z,0.00
2023-01-28T03:19:54.153Z,0.00
2023-01-28T03:20:54.413Z,0.00
2023-01-28T03:22:14.234Z,0.00
2023-01-28T03:22:54.462Z,0.00
2023-01-28T03:23:54.287Z,0.00
2023-01-28T03:24:54.539Z,0.00
2023-01-28T03:25:54.379Z,0.00
2023-01-28T03:26:54.173Z,0.00
2023-01-28T03:27:54.430Z,0.00
2023-01-28T03:28:54.195Z,0.00
2023-01-28T03:29:54.453Z,0.00
2023-01-28T03:30:54.257Z,0.00
2023-01-28T03:32:14.651Z,0.00
2023-01-28T03:32:54.313Z,0.00
2023-01-28T03:33:54.104Z,0.00
2023-01-28T03:34:54.346Z,0.00
2023-01-28T03:35:54.155Z,0.00
2023-01-28T03:36:54.440Z,0.00
2023-01-28T03:37:54.232Z,0.00
2023-01-28T03:38:53.997Z,0.00
2023-01-28T03:39:54.269Z,0.00
2023-01-28T03:40:54.045Z,0.00
2023-01-28T03:42:14.367Z,0.00
2023-01-28T03:42:54.181Z,0.00
2023-01-28T03:43:53.936Z,0.00
2023-01-28T03:44:54.209Z,0.00
2023-01-28T03:45:53.997Z,0.00
2023-01-28T03:46:54.276Z,0.00
2023-01-28T03:47:54.037Z,0.00
2023-01-28T03:48:54.335Z,0.00
2023-01-28T03:49:54.154Z,0.00
2023-01-28T03:50:53.916Z,0.00
2023-01-28T03:52:14.178Z,0.00
2023-01-28T03:52:53.967Z,0.00
2023-01-28T03:53:54.247Z,0.00
2023-01-28T03:54:54.011Z,0.00
2023-01-28T03:55:53.832Z,0.00
2023-01-28T03:56:54.051Z,0.00
2023-01-28T03:57:53.808Z,0.00
2023-01-28T03:58:54.160Z,0.00
2023-01-28T03:59:53.889Z,0.00
2023-01-28T04:00:54.113Z,0.00
2023-01-28T04:02:13.909Z,0.00
2023-01-28T04:02:54.238Z,0.00
2023-01-28T04:03:53.892Z,0.00
2023-01-28T04:04:54.149Z,0.00
2023-01-28T04:05:53.893Z,0.00
2023-01-28T04:06:53.642Z,0.00
2023-01-28T04:07:53.914Z,0.00
2023-01-28T04:08:53.622Z,0.00
2023-01-28T04:09:53.903Z,0.00
2023-01-28T04:10:53.633Z,0.00
2023-01-28T04:12:13.982Z,0.00
2023-01-28T04:12:53.661Z,0.00
2023-01-28T04:13:53.919Z,0.00
2023-01-28T04:14:53.681Z,0.00
2023-01-28T04:15:54.529Z,0.00
2023-01-28T04:16:55.261Z,0.00
2023-01-28T04:17:55.067Z,0.00
2023-01-28T04:18:55.335Z,0.00
2023-01-28T04:19:55.167Z,0.00
2023-01-28T04:20:54.674Z,0.00
2023-01-28T04:22:13.792Z,0.00
2023-01-28T04:22:55.004Z,0.00
2023-01-28T04:23:55.325Z,0.00
2023-01-28T04:24:55.156Z,0.00
2023-01-28T04:25:54.957Z,0.00
2023-01-28T04:26:56.465Z,0.00
2023-01-28T04:27:55.044Z,0.00
2023-01-28T04:28:55.344Z,0.00
2023-01-28T04:29:55.247Z,0.00
2023-01-28T04:30:55.049Z,0.00
2023-01-28T04:32:13.836Z,0.00
2023-01-28T04:32:54.488Z,0.00
2023-01-28T04:33:54.907Z,0.00
2023-01-28T04:34:54.416Z,0.00
2023-01-28T04:35:54.988Z,0.00
2023-01-28T04:36:55.274Z,0.00
2023-01-28T04:37:55.080Z,0.00
2023-01-28T04:38:53.498Z,0.00
2023-01-28T04:39:55.147Z,0.00
2023-01-28T04:40:55.037Z,0.00
2023-01-28T04:42:13.352Z,0.00
2023-01-28T04:42:55.068Z,0.00
2023-01-28T04:43:54.012Z,0.00
2023-01-28T04:44:55.279Z,0.00
2023-01-28T04:45:55.063Z,0.00
2023-01-28T04:46:54.932Z,0.00
2023-01-28T04:47:55.138Z,0.00
2023-01-28T04:48:54.147Z,0.00
2023-01-28T04:49:54.010Z,0.00
2023-01-28T04:50:55.036Z,0.00
2023-01-28T04:52:13.391Z,0.00
2023-01-28T04:52:55.099Z,0.00
2023-01-28T04:53:54.892Z,0.00
2023-01-28T04:54:54.030Z,0.00
2023-01-28T04:55:54.022Z,0.00
2023-01-28T04:56:54.863Z,0.00
2023-01-28T04:57:54.663Z,0.00
2023-01-28T04:58:54.931Z,0.00
2023-01-28T04:59:54.736Z,0.00
2023-01-28T05:00:54.026Z,0.00
2023-01-28T05:02:13.498Z,0.00
2023-01-28T05:02:54.647Z,0.00
2023-01-28T05:03:54.968Z,0.00
2023-01-28T05:04:54.792Z,0.00
2023-01-28T05:05:54.609Z,0.00
2023-01-28T05:06:54.010Z,0.00
2023-01-28T05:07:54.746Z,0.00
2023-01-28T05:08:53.102Z,0.00
2023-01-28T05:09:54.823Z,0.00
2023-01-28T05:10:54.664Z,0.00
2023-01-28T05:12:13.503Z,0.00
2023-01-28T05:12:54.733Z,0.00
2023-01-28T05:13:54.503Z,0.00
2023-01-28T05:14:54.787Z,0.00
2023-01-28T05:15:54.696Z,0.00
2023-01-28T05:16:53.701Z,0.00
2023-01-28T05:17:54.014Z,0.00
2023-01-28T05:18:54.556Z,0.00
2023-01-28T05:19:54.933Z,0.00
2023-01-28T05:20:54.721Z,0.00
2023-01-28T05:22:13.056Z,0.00
2023-01-28T05:22:54.006Z,0.00
2023-01-28T05:23:53.802Z,0.00
2023-01-28T05:24:54.377Z,0.00
2023-01-28T05:25:54.665Z,0.00
2023-01-28T05:26:54.516Z,0.00
2023-01-28T05:27:54.827Z,0.00
2023-01-28T05:28:53.541Z,0.00
2023-01-28T05:29:53.509Z,0.00
2023-01-28T05:30:54.762Z,0.00
2023-01-28T05:32:13.055Z,0.00
2023-01-28T05:32:54.755Z,0.00
2023-01-28T05:33:54.552Z,0.00
2023-01-28T05:34:54.406Z,0.00
2023-01-28T05:35:53.540Z,0.00
2023-01-28T05:36:54.510Z,0.00
2023-01-28T05:37:53.795Z,0.00
2023-01-28T05:38:53.809Z,0.00
2023-01-28T05:39:54.390Z,0.00
2023-01-28T05:40:54.657Z,0.00
2023-01-28T05:42:13.000Z,0.00
2023-01-28T05:42:54.276Z,0.00
2023-01-28T05:43:54.569Z,0.00
2023-01-28T05:44:54.350Z,0.00
2023-01-28T05:45:54.198Z,0.00
2023-01-28T05:46:54.504Z,0.00
2023-01-28T05:47:53.544Z,0.00
2023-01-28T05:48:54.576Z,0.00
2023-01-28T05:49:54.451Z,0.00
2023-01-28T05:50:54.266Z,0.00
2023-01-28T05:52:13.130Z,0.00
2023-01-28T05:52:54.280Z,0.00
2023-01-28T05:53:53.531Z,0.00
2023-01-28T05:54:54.416Z,0.00
2023-01-28T05:55:54.226Z,0.00
2023-01-28T05:56:54.495Z,0.00
2023-01-28T05:57:52.972Z,0.00
2023-01-28T05:58:54.145Z,0.00
2023-01-28T05:59:53.520Z,0.00
2023-01-28T06:00:54.231Z,0.00
2023-01-28T06:02:12.605Z,0.00
2023-01-28T06:02:54.419Z,0.00
2023-01-28T06:03:54.232Z,0.00
2023-01-28T06:04:53.278Z,0.00
2023-01-28T06:05:53.542Z,0.00
2023-01-28T06:06:54.161Z,0.00
2023-01-28T06:07:53.964Z,0.00
2023-01-28T06:08:54.266Z,0.00
2023-01-28T06:09:54.073Z,0.00
2023-01-28T06:10:54.351Z,0.00
2023-01-28T06:12:12.690Z,0.00
2023-01-28T06:12:53.974Z,0.00
2023-01-28T06:13:53.763Z,0.00
2023-01-28T06:14:54.048Z,0.00
2023-01-28T06:15:53.625Z,0.00
2023-01-28T06:16:54.152Z,0.00
2023-01-28T06:17:54.066Z,0.00
2023-01-28T06:18:53.853Z,0.00
2023-01-28T06:19:54.123Z,0.00
2023-01-28T06:20:53.900Z,0.00
2023-01-28T06:22:12.747Z,0.00
2023-01-28T06:22:53.967Z,0.00
2023-01-28T06:23:53.071Z,0.00
2023-01-28T06:24:54.052Z,0.00
2023-01-28T06:25:53.853Z,0.00
2023-01-28T06:26:54.144Z,0.00
2023-01-28T06:27:53.955Z,0.00
2023-01-28T06:28:52.967Z,0.00
2023-01-28T06:29:53.055Z,0.00
2023-01-28T06:30:53.953Z,0.00
2023-01-28T06:32:12.769Z,0.00
2023-01-28T06:32:54.024Z,0.00
2023-01-28T06:33:53.835Z,0.00
2023-01-28T06:34:53.037Z,0.00
2023-01-28T06:35:53.056Z,0.00
2023-01-28T06:36:53.845Z,0.00
2023-01-28T06:37:53.649Z,0.00
2023-01-28T06:38:53.960Z,0.00
2023-01-28T06:39:53.731Z,0.00
2023-01-28T06:40:54.004Z,0.00
2023-01-28T06:42:12.358Z,0.00
2023-01-28T06:42:53.571Z,0.00
2023-01-28T06:43:53.845Z,0.00
2023-01-28T06:44:53.219Z,0.00
2023-01-28T06:45:54.005Z,0.00
2023-01-28T06:46:53.817Z,1.00
2023-01-28T06:47:53.582Z,1.00
2023-01-28T06:48:53.983Z,1.00
2023-01-28T06:49:53.755Z,1.00
2023-01-28T06:50:53.572Z,1.00
2023-01-28T06:52:12.407Z,0.00
2023-01-28T06:52:53.069Z,2.00
2023-01-28T06:53:53.045Z,2.00
2023-01-28T06:54:53.350Z,0.00
2023-01-28T06:55:53.642Z,0.00
2023-01-28T06:56:53.935Z,0.00
2023-01-28T06:57:53.725Z,2.00
2023-01-28T06:58:53.542Z,2.00
2023-01-28T06:59:53.018Z,1.00
2023-01-28T07:00:53.670Z,1.00
2023-01-28T07:02:11.994Z,1.00
2023-01-28T07:02:53.753Z,5.00
2023-01-28T07:03:52.245Z,3.00
2023-01-28T07:04:52.578Z,7.00
2023-01-28T07:05:52.587Z,5.00
2023-01-28T07:06:53.479Z,4.00
2023-01-28T07:07:53.824Z,10.00
2023-01-28T07:08:53.622Z,8.00
2023-01-28T07:09:53.406Z,10.00
2023-01-28T07:10:52.920Z,6.00
2023-01-28T07:12:12.039Z,17.00
2023-01-28T07:12:53.774Z,20.00
2023-01-28T07:13:53.574Z,12.00
2023-01-28T07:14:53.401Z,27.00
2023-01-28T07:15:53.692Z,40.00
2023-01-28T07:16:53.096Z,36.00
2023-01-28T07:17:52.586Z,43.00
2023-01-28T07:18:53.655Z,43.00
2023-01-28T07:19:53.530Z,44.00
2023-01-28T07:20:52.826Z,48.00
2023-01-28T07:22:12.152Z,50.00
2023-01-28T07:22:53.428Z,59.00
2023-01-28T07:23:52.615Z,59.00
2023-01-28T07:24:52.720Z,59.00
2023-01-28T07:25:53.288Z,68.00
2023-01-28T07:26:53.106Z,77.00
2023-01-28T07:27:52.933Z,84.00
2023-01-28T07:28:53.179Z,96.00
2023-01-28T07:29:52.076Z,115.00
2023-01-28T07:30:53.756Z,118.00
2023-01-28T07:32:12.093Z,122.00
2023-01-28T07:32:53.296Z,144.00
2023-01-28T07:33:53.111Z,127.00
2023-01-28T07:34:52.574Z,133.00
2023-01-28T07:35:52.582Z,130.00
2023-01-28T07:36:53.077Z,136.00
2023-01-28T07:37:53.396Z,139.00
2023-01-28T07:38:52.418Z,152.00
2023-01-28T07:39:53.057Z,152.00
2023-01-28T07:40:52.591Z,153.00
2023-01-28T07:42:11.696Z,160.00
2023-01-28T07:42:53.424Z,164.00
2023-01-28T07:43:53.208Z,172.00
2023-01-28T07:44:52.524Z,175.00
2023-01-28T07:45:53.322Z,165.00
2023-01-28T07:46:52.626Z,169.00
2023-01-28T07:47:51.505Z,174.00
2023-01-28T07:48:51.777Z,183.00
2023-01-28T07:49:51.505Z,196.00
2023-01-28T07:50:51.789Z,206.00
2023-01-28T07:52:11.627Z,210.00
2023-01-28T07:52:51.825Z,215.00
2023-01-28T07:53:51.580Z,228.00
2023-01-28T07:54:51.826Z,232.00
2023-01-28T07:55:51.576Z,241.00
2023-01-28T07:56:53.326Z,247.00
2023-01-28T07:57:52.106Z,254.00
2023-01-28T07:58:52.946Z,264.00
2023-01-28T07:59:53.240Z,271.00
2023-01-28T08:00:52.554Z,292.00
2023-01-28T08:02:11.877Z,312.00
2023-01-28T08:02:53.138Z,309.00
2023-01-28T08:03:52.100Z,328.00
2023-01-28T08:04:53.374Z,334.00
2023-01-28T08:05:52.612Z,345.00
2023-01-28T08:06:52.925Z,353.00
2023-01-28T08:07:53.188Z,345.00
2023-01-28T08:08:53.038Z,349.00
2023-01-28T08:09:52.121Z,360.00
2023-01-28T08:10:53.165Z,370.00
2023-01-28T08:12:11.531Z,382.00
2023-01-28T08:12:52.740Z,384.00
2023-01-28T08:13:53.010Z,399.00
2023-01-28T08:14:52.827Z,400.00
2023-01-28T08:15:52.152Z,401.00
2023-01-28T08:16:52.122Z,409.00
2023-01-28T08:17:52.211Z,422.00
2023-01-28T08:18:52.593Z,441.00
2023-01-28T08:19:52.876Z,452.00
2023-01-28T08:20:52.231Z,464.00
2023-01-28T08:22:11.550Z,479.00
2023-01-28T08:22:52.822Z,474.00
2023-01-28T08:23:52.645Z,476.00
2023-01-28T08:24:52.930Z,493.00
2023-01-28T08:25:52.792Z,496.00
2023-01-28T08:26:52.641Z,501.00
2023-01-28T08:27:52.122Z,502.00
2023-01-28T08:28:51.916Z,510.00
2023-01-28T08:29:52.989Z,533.00
2023-01-28T08:30:52.924Z,530.00
2023-01-28T08:32:11.101Z,524.00
2023-01-28T08:32:52.121Z,538.00
2023-01-28T08:33:52.137Z,511.00
2023-01-28T08:34:52.992Z,520.00
2023-01-28T08:35:52.771Z,498.00
2023-01-28T08:36:51.792Z,510.00
2023-01-28T08:37:52.935Z,524.00
2023-01-28T08:38:52.128Z,537.00
2023-01-28T08:39:52.624Z,542.00
2023-01-28T08:40:52.894Z,551.00
2023-01-28T08:42:11.214Z,575.00
2023-01-28T08:42:52.458Z,585.00
2023-01-28T08:43:52.764Z,606.00
2023-01-28T08:44:51.631Z,607.00
2023-01-28T08:45:51.624Z,636.00
2023-01-28T08:46:52.667Z,624.00
2023-01-28T08:47:52.493Z,644.00
2023-01-28T08:48:52.772Z,672.00
2023-01-28T08:49:52.584Z,708.00
2023-01-28T08:50:52.488Z,756.00
2023-01-28T08:52:11.316Z,823.00
2023-01-28T08:52:52.595Z,831.00
2023-01-28T08:53:52.398Z,850.00
2023-01-28T08:54:52.688Z,907.00
2023-01-28T08:55:51.694Z,931.00
2023-01-28T08:56:52.409Z,957.00
2023-01-28T08:57:51.649Z,981.00
2023-01-28T08:58:52.534Z,1008.00
2023-01-28T08:59:52.321Z,1037.00
2023-01-28T09:00:52.627Z,1076.00
2023-01-28T09:02:25.521Z,1112.00
2023-01-28T09:02:52.634Z,1125.00
2023-01-28T09:03:52.484Z,1160.00
2023-01-28T09:04:51.766Z,1200.00
2023-01-28T09:05:52.544Z,1241.00
2023-01-28T09:06:52.430Z,1302.00
2023-01-28T09:07:51.716Z,1352.00
2023-01-28T09:08:51.639Z,1392.00
2023-01-28T09:09:52.389Z,1401.00
2023-01-28T09:10:52.206Z,1412.00
2023-01-28T09:12:11.030Z,1427.00
2023-01-28T09:12:52.272Z,1423.00
2023-01-28T09:13:52.562Z,1431.00
2023-01-28T09:14:51.644Z,1453.00
2023-01-28T09:15:52.204Z,1481.00
2023-01-28T09:16:52.491Z,1562.00
2023-01-28T09:17:52.334Z,1605.00
2023-01-28T09:18:50.669Z,1604.00
2023-01-28T09:19:50.917Z,1558.00
2023-01-28T09:20:50.667Z,1577.00
2023-01-28T09:22:12.420Z,1653.00
2023-01-28T09:22:50.745Z,1694.00
2023-01-28T09:23:50.989Z,1628.00
2023-01-28T09:24:50.773Z,1582.00
2023-01-28T09:25:51.012Z,1628.00
2023-01-28T09:26:50.763Z,1513.00
2023-01-28T09:27:50.542Z,1741.00
2023-01-28T09:28:50.790Z,1892.00
2023-01-28T09:29:50.533Z,1971.00
2023-01-28T09:30:50.836Z,1976.00
2023-01-28T09:32:11.261Z,1926.00
2023-01-28T09:32:50.841Z,1999.00
2023-01-28T09:33:50.584Z,2027.00
2023-01-28T09:34:50.856Z,2010.00
2023-01-28T09:35:50.599Z,1872.00
2023-01-28T09:36:50.846Z,1998.00
2023-01-28T09:37:50.593Z,2024.00
2023-01-28T09:38:50.866Z,1904.00
2023-01-28T09:39:50.597Z,1904.00
2023-01-28T09:40:50.863Z,1925.00
2023-01-28T09:42:11.165Z,1583.00
2023-01-28T09:42:50.440Z,1577.00
2023-01-28T09:43:50.693Z,1798.00
2023-01-28T09:44:50.454Z,2069.00
2023-01-28T09:45:50.721Z,2404.00
2023-01-28T09:46:50.533Z,2775.00
2023-01-28T09:47:50.715Z,3059.00
2023-01-28T09:48:50.488Z,3245.00
2023-01-28T09:49:50.727Z,3208.00
2023-01-28T09:50:50.509Z,3177.00
2023-01-28T09:52:12.213Z,3246.00
2023-01-28T09:52:50.511Z,3230.00
2023-01-28T09:53:50.248Z,2986.00
2023-01-28T09:54:50.511Z,2613.00
2023-01-28T09:55:50.253Z,2351.00
2023-01-28T09:56:50.502Z,2216.00
2023-01-28T09:57:50.259Z,2051.00
2023-01-28T09:58:50.527Z,1992.00
2023-01-28T09:59:50.255Z,1911.00
2023-01-28T10:00:50.583Z,1805.00
2023-01-28T10:02:11.787Z,1761.00
2023-01-28T10:02:50.595Z,1854.00
2023-01-28T10:03:50.400Z,2066.00
2023-01-28T10:04:50.590Z,2227.00
2023-01-28T10:05:50.328Z,2095.00
2023-01-28T10:06:50.578Z,1981.00
2023-01-28T10:07:50.324Z,1949.00
2023-01-28T10:08:50.574Z,1953.00
2023-01-28T10:09:50.311Z,2054.00
2023-01-28T10:10:50.066Z,2216.00
2023-01-28T10:12:11.785Z,2390.00
2023-01-28T10:12:50.087Z,2461.00
2023-01-28T10:13:50.319Z,2465.00
2023-01-28T10:14:50.086Z,2384.00
2023-01-28T10:15:50.313Z,2365.00
2023-01-28T10:16:50.082Z,2378.00
2023-01-28T10:17:50.317Z,2368.00
2023-01-28T10:18:50.095Z,2352.00
2023-01-28T10:19:50.329Z,2314.00
2023-01-28T10:20:50.094Z,2271.00
2023-01-28T10:22:11.194Z,2138.00
2023-01-28T10:22:50.129Z,2054.00
2023-01-28T10:23:50.358Z,1888.00
2023-01-28T10:24:50.117Z,1735.00
2023-01-28T10:25:50.359Z,1609.00
2023-01-28T10:26:50.211Z,1554.00
2023-01-28T10:27:50.349Z,1561.00
2023-01-28T10:28:50.092Z,1554.00
2023-01-28T10:29:50.339Z,1482.00
2023-01-28T10:30:51.644Z,1422.00
2023-01-28T10:32:09.901Z,1452.00
2023-01-28T10:32:51.654Z,1494.00
2023-01-28T10:33:50.684Z,1509.00
2023-01-28T10:34:51.849Z,1494.00
2023-01-28T10:35:51.645Z,1453.00
2023-01-28T10:36:50.676Z,1419.00
2023-01-28T10:37:51.729Z,1404.00
2023-01-28T10:38:51.561Z,1381.00
2023-01-28T10:39:50.689Z,1366.00
2023-01-28T10:40:51.728Z,1384.00
2023-01-28T10:42:10.048Z,1317.00
2023-01-28T10:42:51.295Z,1300.00
2023-01-28T10:43:51.578Z,1316.00
2023-01-28T10:44:51.420Z,1362.00
2023-01-28T10:45:50.716Z,1348.00
2023-01-28T10:46:51.537Z,1321.00
2023-01-28T10:47:50.564Z,1304.00
2023-01-28T10:48:51.623Z,1368.00
2023-01-28T10:49:51.507Z,1450.00
2023-01-28T10:50:51.328Z,1512.00
2023-01-28T10:52:10.167Z,1542.00
2023-01-28T10:52:51.365Z,1543.00
2023-01-28T10:53:51.193Z,1561.00
2023-01-28T10:54:51.451Z,1527.00
2023-01-28T10:55:51.291Z,1484.00
2023-01-28T10:56:50.875Z,1440.00
2023-01-28T10:57:50.691Z,1415.00
2023-01-28T10:58:51.253Z,1420.00
2023-01-28T10:59:51.554Z,1428.00
2023-01-28T11:00:51.417Z,1428.00
2023-01-28T11:02:09.741Z,1451.00
2023-01-28T11:02:50.948Z,1467.00
2023-01-28T11:03:51.230Z,1495.00
2023-01-28T11:04:51.018Z,1480.00
2023-01-28T11:05:51.389Z,1497.00
2023-01-28T11:06:51.153Z,1478.00
2023-01-28T11:07:50.135Z,1459.00
2023-01-28T11:08:51.250Z,1402.00
2023-01-28T11:09:50.208Z,1387.00
2023-01-28T11:10:51.313Z,1398.00
2023-01-28T11:12:09.645Z,1396.00
2023-01-28T11:12:51.356Z,1404.00
2023-01-28T11:13:51.174Z,1431.00
2023-01-28T11:14:50.957Z,1432.00
2023-01-28T11:15:50.195Z,1402.00
2023-01-28T11:16:51.119Z,1354.00
2023-01-28T11:17:50.975Z,1315.00
2023-01-28T11:18:50.727Z,1344.00
2023-01-28T11:19:51.026Z,1360.00
2023-01-28T11:20:50.208Z,1345.00
2023-01-28T11:22:09.695Z,1284.00
2023-01-28T11:22:50.906Z,1284.00
2023-01-28T11:23:51.224Z,1267.00
2023-01-28T11:24:50.989Z,1267.00
2023-01-28T11:25:50.823Z,1287.00
2023-01-28T11:26:51.113Z,1310.00
2023-01-28T11:27:49.692Z,1290.00
2023-01-28T11:28:50.477Z,1300.00
2023-01-28T11:29:51.066Z,1310.00
2023-01-28T11:30:50.868Z,1276.00
2023-01-28T11:32:09.679Z,1300.00
2023-01-28T11:32:50.886Z,1320.00
2023-01-28T11:33:50.197Z,1305.00
2023-01-28T11:34:50.969Z,1269.00
2023-01-28T11:35:50.791Z,1266.00
2023-01-28T11:36:51.152Z,1292.00
2023-01-28T11:37:50.979Z,1348.00
2023-01-28T11:38:50.206Z,1452.00
2023-01-28T11:39:50.206Z,1556.00
2023-01-28T11:40:50.118Z,1603.00
2023-01-28T11:42:09.255Z,1610.00
2023-01-28T11:42:50.955Z,1588.00
2023-01-28T11:43:50.917Z,1547.00
2023-01-28T11:44:50.721Z,1532.00
2023-01-28T11:45:51.056Z,1542.00
2023-01-28T11:46:50.873Z,1551.00
2023-01-28T11:47:50.172Z,1603.00
2023-01-28T11:48:50.969Z,1615.00
2023-01-28T11:49:50.783Z,1617.00
2023-01-28T11:50:49.214Z,1674.00
2023-01-28T11:52:09.483Z,1848.00
2023-01-28T11:53:06.038Z,1938.00
2023-01-28T11:53:51.968Z,2095.00
2023-01-28T11:54:50.728Z,2244.00
2023-01-28T11:55:49.748Z,2221.00
2023-01-28T11:56:50.844Z,2174.00
2023-01-28T11:57:49.720Z,2293.00
2023-01-28T11:58:50.998Z,2425.00
2023-01-28T11:59:50.792Z,2478.00
2023-01-28T12:00:50.569Z,2490.00
2023-01-28T12:02:09.399Z,2350.00
2023-01-28T12:02:50.692Z,2274.00
2023-01-28T12:03:49.731Z,2266.00
2023-01-28T12:04:49.303Z,2134.00
2023-01-28T12:05:49.035Z,2409.00
2023-01-28T12:06:49.266Z,2419.00
2023-01-28T12:07:49.016Z,2324.00
2023-01-28T12:08:49.264Z,2276.00
2023-01-28T12:09:49.710Z,2323.00
2023-01-28T12:10:49.243Z,2577.00
2023-01-28T12:12:10.605Z,3113.00
2023-01-28T12:12:48.856Z,3325.00
2023-01-28T12:13:49.130Z,3441.00
2023-01-28T12:14:48.878Z,3438.00
2023-01-28T12:15:49.176Z,3592.00
2023-01-28T12:16:48.881Z,4164.00
2023-01-28T12:17:49.160Z,4999.00
2023-01-28T12:18:48.881Z,6152.00
2023-01-28T12:19:49.149Z,8617.00
2023-01-28T12:20:48.911Z,11886.00
2023-01-28T12:22:09.753Z,14598.00
2023-01-28T12:22:48.926Z,20237.00
2023-01-28T12:23:49.233Z,23107.00
2023-01-28T12:24:48.934Z,35070.00
2023-01-28T12:25:49.192Z,21212.00
2023-01-28T12:26:48.948Z,23042.00
2023-01-28T12:27:49.183Z,14130.00
2023-01-28T12:28:48.967Z,12960.00
2023-01-28T12:29:48.731Z,10928.00
2023-01-28T12:30:48.995Z,19104.00
2023-01-28T12:32:10.275Z,12706.00
2023-01-28T12:32:49.743Z,10215.00
2023-01-28T12:33:48.821Z,7953.00
2023-01-28T12:34:49.064Z,7273.00
2023-01-28T12:35:50.273Z,7093.00
2023-01-28T12:36:49.070Z,7020.00
2023-01-28T12:37:48.821Z,7375.00
2023-01-28T12:38:49.072Z,5918.00
2023-01-28T12:39:48.817Z,5617.00
2023-01-28T12:40:49.063Z,5264.00
2023-01-28T12:42:10.334Z,4308.00
2023-01-28T12:42:48.608Z,3945.00
2023-01-28T12:43:48.865Z,3575.00
2023-01-28T12:44:48.650Z,3418.00
2023-01-28T12:45:48.952Z,3210.00
2023-01-28T12:46:48.655Z,2973.00
2023-01-28T12:47:48.898Z,2951.00
2023-01-28T12:48:48.664Z,3151.00